createdAt,value
2023-04-15T00:00:43.930Z,69.91
2023-04-15T00:01:43.491Z,69.91
2023-04-15T00:02:43.684Z,70.01
2023-04-15T00:03:43.651Z,69.91
2023-04-15T00:04:43.557Z,70.01
2023-04-15T00:05:43.446Z,70.12
2023-04-15T00:06:43.437Z,70.01
2023-04-15T00:07:43.411Z,70.12
2023-04-15T00:08:43.427Z,70.22
2023-04-15T00:09:43.392Z,70.32
2023-04-15T00:10:43.382Z,70.42
2023-04-15T00:11:43.371Z,70.63
2023-04-15T00:12:43.395Z,70.53
2023-04-15T00:13:43.362Z,70.53
2023-04-15T00:14:43.380Z,70.63
2023-04-15T00:15:43.477Z,70.53
2023-04-15T00:16:43.366Z,70.53
2023-04-15T00:17:43.373Z,70.63
2023-04-15T00:18:43.310Z,70.53
2023-04-15T00:19:43.282Z,70.53
2023-04-15T00:20:43.293Z,70.42
2023-04-15T00:21:43.273Z,70.53
2023-04-15T00:22:43.260Z,70.42
2023-04-15T00:23:43.240Z,70.42
2023-04-15T00:24:43.248Z,70.42
2023-04-15T00:25:43.222Z,70.32
2023-04-15T00:26:43.247Z,70.42
2023-04-15T00:27:43.193Z,70.32
2023-04-15T00:28:43.221Z,70.42
2023-04-15T00:29:43.189Z,70.53
2023-04-15T00:30:44.681Z,70.53
2023-04-15T00:31:43.155Z,70.53
2023-04-15T00:32:43.218Z,70.42
2023-04-15T00:33:44.177Z,70.42
2023-04-15T00:34:43.123Z,70.53
2023-04-15T00:35:43.105Z,70.53
2023-04-15T00:36:43.111Z,70.53
2023-04-15T00:37:45.471Z,70.53
2023-04-15T00:38:43.117Z,70.63
2023-04-15T00:39:43.103Z,70.76
2023-04-15T00:40:43.105Z,70.66
2023-04-15T00:41:43.041Z,70.66
2023-04-15T00:42:43.056Z,70.66
2023-04-15T00:43:43.030Z,70.66
2023-04-15T00:44:43.004Z,70.66
2023-04-15T00:45:43.051Z,70.66
2023-04-15T00:46:43.008Z,70.66
2023-04-15T00:47:43.099Z,70.66
2023-04-15T00:48:42.977Z,70.76
2023-04-15T00:49:42.962Z,70.76
2023-04-15T00:50:42.957Z,70.66
2023-04-15T00:51:42.927Z,70.66
2023-04-15T00:52:42.932Z,70.76
2023-04-15T00:53:42.940Z,70.87
2023-04-15T00:54:42.909Z,70.97
2023-04-15T00:55:42.887Z,71.08
2023-04-15T00:56:42.867Z,71.08
2023-04-15T00:57:42.878Z,71.08
2023-04-15T00:58:42.914Z,71.17
2023-04-15T00:59:42.832Z,71.17
2023-04-15T01:00:42.837Z,71.28
2023-04-15T01:01:42.834Z,71.38
2023-04-15T01:02:42.931Z,71.51
2023-04-15T01:03:42.992Z,71.62
2023-04-15T01:04:42.849Z,71.72
2023-04-15T01:05:42.782Z,72.03
2023-04-15T01:06:42.776Z,72.03
2023-04-15T01:07:42.762Z,72.03
2023-04-15T01:08:42.748Z,72.03
2023-04-15T01:09:43.777Z,72.03
2023-04-15T01:10:42.735Z,72.03
2023-04-15T01:11:42.722Z,72.13
2023-04-15T01:12:42.714Z,72.13
2023-04-15T01:13:42.692Z,72.13
2023-04-15T01:14:42.688Z,72.13
2023-04-15T01:15:42.776Z,72.13
2023-04-15T01:16:42.678Z,72.34
2023-04-15T01:17:42.778Z,72.58
2023-04-15T01:18:42.675Z,72.68
2023-04-15T01:19:42.624Z,72.89
2023-04-15T01:20:42.653Z,72.89
2023-04-15T01:21:42.657Z,72.99
2023-04-15T01:22:42.606Z,73.19
2023-04-15T01:23:42.575Z,73.30
2023-04-15T01:24:42.575Z,73.40
2023-04-15T01:25:42.564Z,73.50
2023-04-15T01:26:44.480Z,73.61
2023-04-15T01:27:42.621Z,73.50
2023-04-15T01:28:42.551Z,73.40
2023-04-15T01:29:42.521Z,73.30
2023-04-15T01:30:42.513Z,73.19
2023-04-15T01:31:42.605Z,73.19
2023-04-15T01:32:43.767Z,73.23
2023-04-15T01:33:42.483Z,73.33
2023-04-15T01:34:42.776Z,73.54
2023-04-15T01:35:42.556Z,73.64
2023-04-15T01:36:43.409Z,73.64
2023-04-15T01:37:42.468Z,73.64
2023-04-15T01:38:42.968Z,73.54
2023-04-15T01:39:42.439Z,73.44
2023-04-15T01:40:42.481Z,73.44
2023-04-15T01:41:42.875Z,73.64
2023-04-15T01:42:42.710Z,73.74
2023-04-15T01:43:42.444Z,73.85
2023-04-15T01:44:42.648Z,73.85
2023-04-15T01:45:43.211Z,73.85
2023-04-15T01:46:42.387Z,73.74
2023-04-15T01:47:43.805Z,73.85
2023-04-15T01:48:42.610Z,73.85
2023-04-15T01:49:43.767Z,73.85
2023-04-15T01:50:43.308Z,73.85
2023-04-15T01:51:43.771Z,73.85
2023-04-15T01:52:43.756Z,73.85
2023-04-15T01:53:42.514Z,73.85
2023-04-15T01:54:42.248Z,73.85
2023-04-15T01:55:43.253Z,73.95
2023-04-15T01:56:42.294Z,73.85
2023-04-15T01:57:43.002Z,73.85
2023-04-15T01:58:42.215Z,73.85
2023-04-15T01:59:42.442Z,73.74
2023-04-15T02:00:43.675Z,73.74
2023-04-15T02:01:43.139Z,73.64
2023-04-15T02:02:43.220Z,73.74
2023-04-15T02:03:43.716Z,73.64
2023-04-15T02:04:42.157Z,73.54
2023-04-15T02:05:42.172Z,73.64
2023-04-15T02:06:43.588Z,73.64
2023-04-15T02:07:43.076Z,73.54
2023-04-15T02:08:42.141Z,73.64
2023-04-15T02:09:42.079Z,73.95
2023-04-15T02:10:43.526Z,73.95
2023-04-15T02:11:43.509Z,74.05
2023-04-15T02:12:42.111Z,74.05
2023-04-15T02:13:42.074Z,74.15
2023-04-15T02:14:42.021Z,74.05
2023-04-15T02:15:42.094Z,74.15
2023-04-15T02:16:42.031Z,74.15
2023-04-15T02:17:42.869Z,74.15
2023-04-15T02:18:42.839Z,74.36
2023-04-15T02:19:42.082Z,74.46
2023-04-15T02:20:43.424Z,74.46
2023-04-15T02:21:42.916Z,74.46
2023-04-15T02:22:42.798Z,74.46
2023-04-15T02:23:42.080Z,74.57
2023-04-15T02:24:42.009Z,74.67
2023-04-15T02:25:41.928Z,74.57
2023-04-15T02:26:41.932Z,74.67
2023-04-15T02:27:42.001Z,74.87
2023-04-15T02:28:42.230Z,74.98
2023-04-15T02:29:42.087Z,75.08
2023-04-15T02:30:42.147Z,75.29
2023-04-15T02:31:42.859Z,75.39
2023-04-15T02:32:41.998Z,75.39
2023-04-15T02:33:41.948Z,75.49
2023-04-15T02:34:42.607Z,75.59
2023-04-15T02:35:41.801Z,75.80
2023-04-15T02:36:43.772Z,76.01
2023-04-15T02:37:41.836Z,76.01
2023-04-15T02:38:41.765Z,76.01
2023-04-15T02:39:41.890Z,76.01
2023-04-15T02:40:41.950Z,76.01
2023-04-15T02:41:43.193Z,76.11
2023-04-15T02:42:42.028Z,76.21
2023-04-15T02:43:41.739Z,76.21
2023-04-15T02:44:42.182Z,76.42
2023-04-15T02:45:42.672Z,76.52
2023-04-15T02:46:41.705Z,76.52
2023-04-15T02:47:42.655Z,76.62
2023-04-15T02:48:41.668Z,76.76
2023-04-15T02:49:41.805Z,76.86
2023-04-15T02:50:42.117Z,76.76
2023-04-15T02:51:41.758Z,76.76
2023-04-15T02:52:41.752Z,76.76
2023-04-15T02:53:43.603Z,76.86
2023-04-15T02:54:41.578Z,76.97
2023-04-15T02:55:41.582Z,77.07
2023-04-15T02:56:41.561Z,77.17
2023-04-15T02:57:41.595Z,77.38
2023-04-15T02:58:41.552Z,77.38
2023-04-15T02:59:42.999Z,77.38
2023-04-15T03:00:41.581Z,77.38
2023-04-15T03:01:41.616Z,77.38
2023-04-15T03:02:41.655Z,77.38
2023-04-15T03:03:42.578Z,77.38
2023-04-15T03:04:41.544Z,77.48
2023-04-15T03:05:41.453Z,77.48
2023-04-15T03:06:41.598Z,77.48
2023-04-15T03:07:41.475Z,77.48
2023-04-15T03:08:41.460Z,77.58
2023-04-15T03:09:42.886Z,77.69
2023-04-15T03:10:42.840Z,77.69
2023-04-15T03:11:43.343Z,77.83
2023-04-15T03:12:41.877Z,77.79
2023-04-15T03:13:41.412Z,77.83
2023-04-15T03:14:41.349Z,78.03
2023-04-15T03:15:41.476Z,78.03
2023-04-15T03:16:41.334Z,78.14
2023-04-15T03:17:41.451Z,78.24
2023-04-15T03:18:41.299Z,78.24
2023-04-15T03:19:42.359Z,78.24
2023-04-15T03:20:41.492Z,78.24
2023-04-15T03:21:42.227Z,78.24
2023-04-15T03:22:41.264Z,78.24
2023-04-15T03:23:41.291Z,78.24
2023-04-15T03:24:41.290Z,78.24
2023-04-15T03:25:41.278Z,78.24
2023-04-15T03:26:41.577Z,78.24
2023-04-15T03:27:42.682Z,78.34
2023-04-15T03:28:42.667Z,78.34
2023-04-15T03:29:42.176Z,78.44
2023-04-15T03:30:42.694Z,78.44
2023-04-15T03:31:42.178Z,78.34
2023-04-15T03:32:41.157Z,78.30
2023-04-15T03:33:41.153Z,78.24
2023-04-15T03:34:41.147Z,78.24
2023-04-15T03:35:41.129Z,78.24
2023-04-15T03:36:41.166Z,78.24
2023-04-15T03:37:41.183Z,78.34
2023-04-15T03:38:41.116Z,78.34
2023-04-15T03:39:41.138Z,78.44
2023-04-15T03:40:41.153Z,78.55
2023-04-15T03:41:41.080Z,78.55
2023-04-15T03:42:41.079Z,78.65
2023-04-15T03:43:41.038Z,78.75
2023-04-15T03:44:41.058Z,78.75
2023-04-15T03:45:41.027Z,78.96
2023-04-15T03:46:41.044Z,79.06
2023-04-15T03:47:41.021Z,79.06
2023-04-15T03:48:40.975Z,79.16
2023-04-15T03:49:41.105Z,79.27
2023-04-15T03:50:41.167Z,79.27
2023-04-15T03:51:41.923Z,79.41
2023-04-15T03:52:40.981Z,79.37
2023-04-15T03:53:41.163Z,79.41
2023-04-15T03:54:40.927Z,79.51
2023-04-15T03:55:40.913Z,79.61
2023-04-15T03:56:40.897Z,79.72
2023-04-15T03:57:40.886Z,79.82
2023-04-15T03:58:40.896Z,79.82
2023-04-15T03:59:40.859Z,79.82
2023-04-15T04:00:41.144Z,79.93
2023-04-15T04:01:40.908Z,79.93
2023-04-15T04:02:41.018Z,80.02
2023-04-15T04:03:41.032Z,80.13
2023-04-15T04:04:41.018Z,80.23
2023-04-15T04:05:40.799Z,80.23
2023-04-15T04:06:40.769Z,80.33
2023-04-15T04:07:40.842Z,80.33
2023-04-15T04:08:40.781Z,80.33
2023-04-15T04:09:40.763Z,80.44
2023-04-15T04:10:40.739Z,80.44
2023-04-15T04:11:40.756Z,80.33
2023-04-15T04:12:40.708Z,80.44
2023-04-15T04:13:40.709Z,80.54
2023-04-15T04:14:40.721Z,80.54
2023-04-15T04:15:40.698Z,80.54
2023-04-15T04:16:40.751Z,80.44
2023-04-15T04:17:41.666Z,80.54
2023-04-15T04:18:40.644Z,80.54
2023-04-15T04:19:40.648Z,80.65
2023-04-15T04:20:40.624Z,80.65
2023-04-15T04:21:40.625Z,80.65
2023-04-15T04:22:40.663Z,80.75
2023-04-15T04:23:40.639Z,80.75
2023-04-15T04:24:40.586Z,80.65
2023-04-15T04:25:40.587Z,80.75
2023-04-15T04:26:40.550Z,80.75
2023-04-15T04:27:40.563Z,80.85
2023-04-15T04:28:40.630Z,80.95
2023-04-15T04:29:41.347Z,81.05
2023-04-15T04:30:40.514Z,81.16
2023-04-15T04:31:40.540Z,81.30
2023-04-15T04:32:40.934Z,81.30
2023-04-15T04:33:40.512Z,81.30
2023-04-15T04:34:40.548Z,81.40
2023-04-15T04:35:40.532Z,81.40
2023-04-15T04:36:40.456Z,81.51
2023-04-15T04:37:40.446Z,81.61
2023-04-15T04:38:40.418Z,81.71
2023-04-15T04:39:41.376Z,81.71
2023-04-15T04:40:41.278Z,81.81
2023-04-15T04:41:40.400Z,81.92
2023-04-15T04:42:40.444Z,81.92
2023-04-15T04:43:41.371Z,82.02
2023-04-15T04:44:40.400Z,82.02
2023-04-15T04:45:41.398Z,82.12
2023-04-15T04:46:40.607Z,82.12
2023-04-15T04:47:40.391Z,82.23
2023-04-15T04:48:40.322Z,82.23
2023-04-15T04:49:40.315Z,82.33
2023-04-15T04:50:40.463Z,82.33
2023-04-15T04:51:40.374Z,82.33
2023-04-15T04:52:40.278Z,82.33
2023-04-15T04:53:40.271Z,82.33
2023-04-15T04:54:40.257Z,82.43
2023-04-15T04:55:40.260Z,82.43
2023-04-15T04:56:40.242Z,82.43
2023-04-15T04:57:40.844Z,82.43
2023-04-15T04:58:40.205Z,82.43
2023-04-15T04:59:41.156Z,82.43
2023-04-15T05:00:41.163Z,82.54
2023-04-15T05:01:40.309Z,82.54
2023-04-15T05:02:40.295Z,82.43
2023-04-15T05:03:41.154Z,82.54
2023-04-15T05:04:40.170Z,82.54
2023-04-15T05:05:40.173Z,82.54
2023-04-15T05:06:41.384Z,82.54
2023-04-15T05:07:40.189Z,82.54
2023-04-15T05:08:40.512Z,82.54
2023-04-15T05:09:40.165Z,82.64
2023-04-15T05:10:40.220Z,82.74
2023-04-15T05:11:41.094Z,82.84
2023-04-15T05:12:40.116Z,82.95
2023-04-15T05:13:40.426Z,83.05
2023-04-15T05:14:40.045Z,83.15
2023-04-15T05:15:40.060Z,83.15
2023-04-15T05:16:40.061Z,83.15
2023-04-15T05:17:41.446Z,83.05
2023-04-15T05:18:40.266Z,83.05
2023-04-15T05:19:39.984Z,83.05
2023-04-15T05:20:39.989Z,83.05
2023-04-15T05:21:39.966Z,83.15
2023-04-15T05:22:40.744Z,83.15
2023-04-15T05:23:39.913Z,83.26
2023-04-15T05:24:39.966Z,83.36
2023-04-15T05:25:39.915Z,83.36
2023-04-15T05:26:39.902Z,83.47
2023-04-15T05:27:39.894Z,83.47
2023-04-15T05:28:39.874Z,83.47
2023-04-15T05:29:39.906Z,83.47
2023-04-15T05:30:39.931Z,83.56
2023-04-15T05:31:40.231Z,83.56
2023-04-15T05:32:39.856Z,83.56
2023-04-15T05:33:39.968Z,83.56
2023-04-15T05:34:39.819Z,83.56
2023-04-15T05:35:39.804Z,83.67
2023-04-15T05:36:39.885Z,83.67
2023-04-15T05:37:39.799Z,83.77
2023-04-15T05:38:39.799Z,83.73
2023-04-15T05:39:39.781Z,83.73
2023-04-15T05:40:39.875Z,83.63
2023-04-15T05:41:39.753Z,83.63
2023-04-15T05:42:41.287Z,83.63
2023-04-15T05:43:39.755Z,83.63
2023-04-15T05:44:39.700Z,83.63
2023-04-15T05:45:39.712Z,83.53
2023-04-15T05:46:39.814Z,83.53
2023-04-15T05:47:40.116Z,83.53
2023-04-15T05:48:40.654Z,83.49
2023-04-15T05:49:39.670Z,83.49
2023-04-15T05:50:39.649Z,83.39
2023-04-15T05:51:39.624Z,83.39
2023-04-15T05:52:39.882Z,83.39
2023-04-15T05:53:40.548Z,83.39
2023-04-15T05:54:40.412Z,83.28
2023-04-15T05:55:39.584Z,83.28
2023-04-15T05:56:41.057Z,83.25
2023-04-15T05:57:39.571Z,83.14
2023-04-15T05:58:41.024Z,83.04
2023-04-15T05:59:41.000Z,83.04
2023-04-15T06:00:40.328Z,82.83
2023-04-15T06:01:40.974Z,82.73
2023-04-15T06:02:39.812Z,82.73
2023-04-15T06:03:40.282Z,82.63
2023-04-15T06:04:39.662Z,82.59
2023-04-15T06:05:40.939Z,82.48
2023-04-15T06:06:40.246Z,82.39
2023-04-15T06:07:40.416Z,82.39
2023-04-15T06:08:40.915Z,82.28
2023-04-15T06:09:39.944Z,82.24
2023-04-15T06:10:40.249Z,82.14
2023-04-15T06:11:39.468Z,82.04
2023-04-15T06:12:40.878Z,81.93
2023-04-15T06:13:40.278Z,81.93
2023-04-15T06:14:40.193Z,82.14
2023-04-15T06:15:40.820Z,82.24
2023-04-15T06:16:41.407Z,82.51
2023-04-15T06:17:39.470Z,82.62
2023-04-15T06:18:39.344Z,82.41
2023-04-15T06:19:40.105Z,82.27
2023-04-15T06:20:39.378Z,82.37
2023-04-15T06:21:40.288Z,82.47
2023-04-15T06:22:40.756Z,82.33
2023-04-15T06:23:39.288Z,82.03
2023-04-15T06:24:40.735Z,81.71
2023-04-15T06:25:39.319Z,81.51
2023-04-15T06:26:40.697Z,81.37
2023-04-15T06:27:40.052Z,81.27
2023-04-15T06:28:39.222Z,81.27
2023-04-15T06:29:40.686Z,81.02
2023-04-15T06:30:40.048Z,80.62
2023-04-15T06:31:39.384Z,80.41
2023-04-15T06:32:39.322Z,80.21
2023-04-15T06:33:39.358Z,80.21
2023-04-15T06:34:39.321Z,79.90
2023-04-15T06:35:40.107Z,79.59
2023-04-15T06:36:39.168Z,79.35
2023-04-15T06:37:40.595Z,79.24
2023-04-15T06:38:40.071Z,79.14
2023-04-15T06:39:39.146Z,79.04
2023-04-15T06:40:39.131Z,78.94
2023-04-15T06:41:40.063Z,78.97
2023-04-15T06:42:39.888Z,78.94
2023-04-15T06:43:39.103Z,79.04
2023-04-15T06:44:39.094Z,79.14
2023-04-15T06:45:41.100Z,79.14
2023-04-15T06:46:39.251Z,79.24
2023-04-15T06:47:39.265Z,79.24
2023-04-15T06:48:40.969Z,79.35
2023-04-15T06:49:39.970Z,79.66
2023-04-15T06:50:39.016Z,79.96
2023-04-15T06:51:40.426Z,80.03
2023-04-15T06:52:39.259Z,80.13
2023-04-15T06:53:40.427Z,80.13
2023-04-15T06:54:40.470Z,79.89
2023-04-15T06:55:40.893Z,79.68
2023-04-15T06:56:38.946Z,79.58
2023-04-15T06:57:38.895Z,79.44
2023-04-15T06:58:40.352Z,79.24
2023-04-15T06:59:39.650Z,78.83
2023-04-15T07:00:39.658Z,78.49
2023-04-15T07:01:40.328Z,78.28
2023-04-15T07:02:39.424Z,78.08
2023-04-15T07:03:38.889Z,77.97
2023-04-15T07:04:38.998Z,77.83
2023-04-15T07:05:39.770Z,77.42
2023-04-15T07:06:38.830Z,77.12
2023-04-15T07:07:38.978Z,77.01
2023-04-15T07:08:39.662Z,76.57
2023-04-15T07:09:40.363Z,76.16
2023-04-15T07:10:38.790Z,75.96
2023-04-15T07:11:40.211Z,75.96
2023-04-15T07:12:39.577Z,75.96
2023-04-15T07:13:38.857Z,75.75
2023-04-15T07:14:40.172Z,75.51
2023-04-15T07:15:39.120Z,75.31
2023-04-15T07:16:38.712Z,74.69
2023-04-15T07:17:39.194Z,74.29
2023-04-15T07:18:38.928Z,74.18
2023-04-15T07:19:39.093Z,73.88
2023-04-15T07:20:39.672Z,73.88
2023-04-15T07:21:41.833Z,73.98
2023-04-15T07:22:38.735Z,73.88
2023-04-15T07:23:40.186Z,73.57
2023-04-15T07:24:39.096Z,73.47
2023-04-15T07:25:38.674Z,73.36
2023-04-15T07:26:38.591Z,73.27
2023-04-15T07:27:38.631Z,73.16
2023-04-15T07:28:39.010Z,73.06
2023-04-15T07:29:38.575Z,72.96
2023-04-15T07:30:39.889Z,72.55
2023-04-15T07:31:38.620Z,72.24
2023-04-15T07:32:40.035Z,71.94
2023-04-15T07:33:38.546Z,71.83
2023-04-15T07:34:39.950Z,71.94
2023-04-15T07:35:38.536Z,71.83
2023-04-15T07:36:39.902Z,71.42
2023-04-15T07:37:38.495Z,71.29
2023-04-15T07:38:38.471Z,71.29
2023-04-15T07:39:38.448Z,71.39
2023-04-15T07:40:38.412Z,71.39
2023-04-15T07:41:39.217Z,71.39
2023-04-15T07:42:41.171Z,71.29
2023-04-15T07:43:38.517Z,71.19
2023-04-15T07:44:39.831Z,71.15
2023-04-15T07:45:38.485Z,71.26
2023-04-15T07:46:38.765Z,71.15
2023-04-15T07:47:38.595Z,70.85
2023-04-15T07:48:38.447Z,70.34
2023-04-15T07:49:39.281Z,70.34
2023-04-15T07:50:38.390Z,70.03
2023-04-15T07:51:38.383Z,69.52
2023-04-15T07:52:38.335Z,69.62
2023-04-15T07:53:38.707Z,69.82
2023-04-15T07:54:38.355Z,70.10
2023-04-15T07:55:39.481Z,69.59
2023-04-15T07:56:38.610Z,69.49
2023-04-15T07:57:39.702Z,69.49
2023-04-15T07:58:38.354Z,69.38
2023-04-15T07:59:38.546Z,69.38
2023-04-15T08:00:38.550Z,69.49
2023-04-15T08:01:38.436Z,69.38
2023-04-15T08:02:40.150Z,69.29
2023-04-15T08:03:38.337Z,69.29
2023-04-15T08:04:38.384Z,69.38
2023-04-15T08:05:38.165Z,69.38
2023-04-15T08:06:38.168Z,68.98
2023-04-15T08:07:38.167Z,68.88
2023-04-15T08:08:39.580Z,68.98
2023-04-15T08:09:39.554Z,68.88
2023-04-15T08:10:38.077Z,68.47
2023-04-15T08:11:38.239Z,68.26
2023-04-15T08:12:38.202Z,68.37
2023-04-15T08:13:38.052Z,68.37
2023-04-15T08:14:38.033Z,68.26
2023-04-15T08:15:38.046Z,68.16
2023-04-15T08:16:38.044Z,68.06
2023-04-15T08:17:38.058Z,67.96
2023-04-15T08:18:37.975Z,68.03
2023-04-15T08:19:37.972Z,68.03
2023-04-15T08:20:37.972Z,67.93
2023-04-15T08:21:37.949Z,67.93
2023-04-15T08:22:38.267Z,68.03
2023-04-15T08:23:37.955Z,68.03
2023-04-15T08:24:37.935Z,67.62
2023-04-15T08:25:38.919Z,67.93
2023-04-15T08:26:37.881Z,67.72
2023-04-15T08:27:38.424Z,67.62
2023-04-15T08:28:37.873Z,67.49
2023-04-15T08:29:37.888Z,67.59
2023-04-15T08:30:38.125Z,67.49
2023-04-15T08:31:38.114Z,67.38
2023-04-15T08:32:37.896Z,67.08
2023-04-15T08:33:39.038Z,66.94
2023-04-15T08:34:37.828Z,66.54
2023-04-15T08:35:37.797Z,66.33
2023-04-15T08:36:39.264Z,66.44
2023-04-15T08:37:38.765Z,66.44
2023-04-15T08:38:37.762Z,66.13
2023-04-15T08:39:38.136Z,65.92
2023-04-15T08:40:39.029Z,66.13
2023-04-15T08:41:37.760Z,65.92
2023-04-15T08:42:39.030Z,66.23
2023-04-15T08:43:37.780Z,66.23
2023-04-15T08:44:39.044Z,65.59
2023-04-15T08:45:38.151Z,65.22
2023-04-15T08:46:39.070Z,65.11
2023-04-15T08:47:38.556Z,64.50
2023-04-15T08:48:37.688Z,64.50
2023-04-15T08:49:37.701Z,64.70
2023-04-15T08:50:39.047Z,65.22
2023-04-15T08:51:37.646Z,65.22
2023-04-15T08:52:37.713Z,64.60
2023-04-15T08:53:37.643Z,64.70
2023-04-15T08:54:39.068Z,64.81
2023-04-15T08:55:37.722Z,64.73
2023-04-15T08:56:39.056Z,65.04
2023-04-15T08:57:37.578Z,65.34
2023-04-15T08:58:37.710Z,65.65
2023-04-15T08:59:37.557Z,65.34
2023-04-15T09:00:37.641Z,65.34
2023-04-15T09:01:39.032Z,65.65
2023-04-15T09:02:37.726Z,65.95
2023-04-15T09:03:37.751Z,66.03
2023-04-15T09:04:37.527Z,66.03
2023-04-15T09:05:38.958Z,65.72
2023-04-15T09:06:38.948Z,65.31
2023-04-15T09:07:37.468Z,64.90
2023-04-15T09:08:38.905Z,65.11
2023-04-15T09:09:38.285Z,65.42
2023-04-15T09:10:38.380Z,66.50
2023-04-15T09:11:38.857Z,66.10
2023-04-15T09:12:37.456Z,65.89
2023-04-15T09:13:37.393Z,65.49
2023-04-15T09:14:38.447Z,64.84
2023-04-15T09:15:37.683Z,64.75
2023-04-15T09:16:37.699Z,64.64
2023-04-15T09:17:37.441Z,64.84
2023-04-15T09:18:37.355Z,64.23
2023-04-15T09:19:38.785Z,63.83
2023-04-15T09:20:38.792Z,64.41
2023-04-15T09:21:39.075Z,64.61
2023-04-15T09:22:37.643Z,64.61
2023-04-15T09:23:37.394Z,64.00
2023-04-15T09:24:37.330Z,63.29
2023-04-15T09:25:38.712Z,63.19
2023-04-15T09:26:37.740Z,63.39
2023-04-15T09:27:37.282Z,63.49
2023-04-15T09:28:37.248Z,63.49
2023-04-15T09:29:37.450Z,63.70
2023-04-15T09:30:38.254Z,63.59
2023-04-15T09:31:38.663Z,63.29
2023-04-15T09:32:37.213Z,63.22
2023-04-15T09:33:37.291Z,63.32
2023-04-15T09:34:37.171Z,63.42
2023-04-15T09:35:38.112Z,63.45
2023-04-15T09:36:38.091Z,63.86
2023-04-15T09:37:37.200Z,64.06
2023-04-15T09:38:37.181Z,64.57
2023-04-15T09:39:38.580Z,64.26
2023-04-15T09:40:38.579Z,64.17
2023-04-15T09:41:38.544Z,64.26
2023-04-15T09:42:38.576Z,64.37
2023-04-15T09:43:37.262Z,64.47
2023-04-15T09:44:38.036Z,64.57
2023-04-15T09:45:38.512Z,64.57
2023-04-15T09:46:39.003Z,64.67
2023-04-15T09:47:38.544Z,64.57
2023-04-15T09:48:37.788Z,64.87
2023-04-15T09:49:38.480Z,65.08
2023-04-15T09:50:37.930Z,65.08
2023-04-15T09:51:38.607Z,65.08
2023-04-15T09:52:37.179Z,65.28
2023-04-15T09:53:38.377Z,65.08
2023-04-15T09:54:37.136Z,65.19
2023-04-15T09:55:37.301Z,65.59
2023-04-15T09:56:38.413Z,65.59
2023-04-15T09:57:37.713Z,65.89
2023-04-15T09:58:37.844Z,65.89
2023-04-15T09:59:36.896Z,65.89
2023-04-15T10:00:37.820Z,65.89
2023-04-15T10:01:37.435Z,65.80
2023-04-15T10:02:38.497Z,66.10
2023-04-15T10:03:38.328Z,66.27
2023-04-15T10:04:38.281Z,66.27
2023-04-15T10:05:37.786Z,65.97
2023-04-15T10:06:38.284Z,66.17
2023-04-15T10:07:37.112Z,65.94
2023-04-15T10:08:36.853Z,65.63
2023-04-15T10:09:37.046Z,65.63
2023-04-15T10:10:38.214Z,65.43
2023-04-15T10:11:38.202Z,65.19
2023-04-15T10:12:36.727Z,65.19
2023-04-15T10:13:38.194Z,65.06
2023-04-15T10:14:36.988Z,64.86
2023-04-15T10:15:36.766Z,65.06
2023-04-15T10:16:38.650Z,64.93
2023-04-15T10:17:38.145Z,64.93
2023-04-15T10:18:36.649Z,64.42
2023-04-15T10:19:36.638Z,64.42
2023-04-15T10:20:37.481Z,64.42
2023-04-15T10:21:38.074Z,64.52
2023-04-15T10:22:38.104Z,64.32
2023-04-15T10:23:36.597Z,64.01
2023-04-15T10:24:36.652Z,64.32
2023-04-15T10:25:37.391Z,64.52
2023-04-15T10:26:36.562Z,64.93
2023-04-15T10:27:38.011Z,65.03
2023-04-15T10:28:36.732Z,64.73
2023-04-15T10:29:36.530Z,64.32
2023-04-15T10:30:37.985Z,64.04
2023-04-15T10:31:37.379Z,64.15
2023-04-15T10:32:37.512Z,64.25
2023-04-15T10:33:36.673Z,64.45
2023-04-15T10:34:37.457Z,64.69
2023-04-15T10:35:37.321Z,64.79
2023-04-15T10:36:37.924Z,64.79
2023-04-15T10:37:37.256Z,64.81
2023-04-15T10:38:36.711Z,65.22
2023-04-15T10:39:37.244Z,65.73
2023-04-15T10:40:37.399Z,65.83
2023-04-15T10:41:36.634Z,65.70
2023-04-15T10:42:37.858Z,65.70
2023-04-15T10:43:38.345Z,65.60
2023-04-15T10:44:36.368Z,65.70
2023-04-15T10:45:37.258Z,65.50
2023-04-15T10:46:36.462Z,65.39
2023-04-15T10:47:37.307Z,65.39
2023-04-15T10:48:37.796Z,65.60
2023-04-15T10:49:37.165Z,65.80
2023-04-15T10:50:37.262Z,65.80
2023-04-15T10:51:37.691Z,66.00
2023-04-15T10:52:37.760Z,66.00
2023-04-15T10:53:38.254Z,66.00
2023-04-15T10:54:37.223Z,66.11
2023-04-15T10:55:38.255Z,66.21
2023-04-15T10:56:37.690Z,66.04
2023-04-15T10:57:36.289Z,66.44
2023-04-15T10:58:36.322Z,66.96
2023-04-15T10:59:36.500Z,67.26
2023-04-15T11:00:36.624Z,67.46
2023-04-15T11:01:36.297Z,67.66
2023-04-15T11:02:36.920Z,67.16
2023-04-15T11:03:36.977Z,67.16
2023-04-15T11:04:36.435Z,67.36
2023-04-15T11:05:37.025Z,67.16
2023-04-15T11:06:37.097Z,66.96
2023-04-15T11:07:36.235Z,66.96
2023-04-15T11:08:37.065Z,67.05
2023-04-15T11:09:37.204Z,67.16
2023-04-15T11:10:36.940Z,67.57
2023-04-15T11:11:37.023Z,67.57
2023-04-15T11:12:36.109Z,67.57
2023-04-15T11:13:37.305Z,67.26
2023-04-15T11:14:37.350Z,67.16
2023-04-15T11:15:36.128Z,66.82
2023-04-15T11:16:36.897Z,66.92
2023-04-15T11:17:37.470Z,67.13
2023-04-15T11:18:37.443Z,66.82
2023-04-15T11:19:36.097Z,66.31
2023-04-15T11:20:37.431Z,65.50
2023-04-15T11:21:36.024Z,65.43
2023-04-15T11:22:36.097Z,65.94
2023-04-15T11:23:35.968Z,66.35
2023-04-15T11:24:37.374Z,66.24
2023-04-15T11:25:36.505Z,66.24
2023-04-15T11:26:35.953Z,66.65
2023-04-15T11:27:36.146Z,66.75
2023-04-15T11:28:38.908Z,66.44
2023-04-15T11:29:36.074Z,66.55
2023-04-15T11:30:37.316Z,66.24
2023-04-15T11:31:36.386Z,66.35
2023-04-15T11:32:35.910Z,66.35
2023-04-15T11:33:37.287Z,66.58
2023-04-15T11:34:36.267Z,66.55
2023-04-15T11:35:36.696Z,66.55
2023-04-15T11:36:36.249Z,66.44
2023-04-15T11:37:35.813Z,66.55
2023-04-15T11:38:37.226Z,66.65
2023-04-15T11:39:35.850Z,66.58
2023-04-15T11:40:35.774Z,66.68
2023-04-15T11:41:36.584Z,66.88
2023-04-15T11:42:48.500Z,67.08
2023-04-15T11:43:36.736Z,67.19
2023-04-15T11:44:37.158Z,67.08
2023-04-15T11:45:35.797Z,67.39
2023-04-15T11:46:37.664Z,67.60
2023-04-15T11:47:35.972Z,67.39
2023-04-15T11:48:35.677Z,66.99
2023-04-15T11:49:35.943Z,67.08
2023-04-15T11:50:36.609Z,67.19
2023-04-15T11:51:35.669Z,66.88
2023-04-15T11:52:37.091Z,67.08
2023-04-15T11:53:36.424Z,67.05
2023-04-15T11:54:36.595Z,66.44
2023-04-15T11:55:37.031Z,66.85
2023-04-15T11:56:37.058Z,66.85
2023-04-15T11:57:36.439Z,67.05
2023-04-15T11:58:36.998Z,67.13
2023-04-15T11:59:44.870Z,67.02
2023-04-15T12:00:37.981Z,66.72
2023-04-15T12:01:36.998Z,66.00
2023-04-15T12:02:35.656Z,65.39
2023-04-15T12:03:35.750Z,65.43
2023-04-15T12:04:35.800Z,66.14
2023-04-15T12:05:36.914Z,66.14
2023-04-15T12:06:35.467Z,66.44
2023-04-15T12:07:35.463Z,66.35
2023-04-15T12:08:35.427Z,65.94
2023-04-15T12:09:36.275Z,66.04
2023-04-15T12:10:36.360Z,66.24
2023-04-15T12:11:36.358Z,65.94
2023-04-15T12:12:36.831Z,65.83
2023-04-15T12:13:35.368Z,65.94
2023-04-15T12:14:36.193Z,65.73
2023-04-15T12:15:36.836Z,65.63
2023-04-15T12:16:48.036Z,66.35
2023-04-15T12:17:52.139Z,66.44
2023-04-15T12:18:36.344Z,66.04
2023-04-15T12:19:36.464Z,65.97
2023-04-15T12:20:36.109Z,65.66
2023-04-15T12:21:36.730Z,65.97
2023-04-15T12:22:36.106Z,66.07
2023-04-15T12:23:36.721Z,66.47
2023-04-15T12:24:36.720Z,66.78
2023-04-15T12:25:35.768Z,67.02
2023-04-15T12:26:36.686Z,67.12
2023-04-15T12:27:37.242Z,67.32
2023-04-15T12:28:36.159Z,67.73
2023-04-15T12:29:36.660Z,68.04
2023-04-15T12:30:36.656Z,68.13
2023-04-15T12:31:36.660Z,68.27
2023-04-15T12:32:35.696Z,67.86
2023-04-15T12:33:35.548Z,67.86
2023-04-15T12:34:35.410Z,67.96
2023-04-15T12:35:35.157Z,67.96
2023-04-15T12:36:35.122Z,67.96
2023-04-15T12:37:35.204Z,67.96
2023-04-15T12:38:35.874Z,68.04
2023-04-15T12:39:35.554Z,68.04
2023-04-15T12:40:36.043Z,67.63
2023-04-15T12:41:36.488Z,67.32
2023-04-15T12:42:35.869Z,67.32
2023-04-15T12:43:35.425Z,67.52
2023-04-15T12:44:35.106Z,67.73
2023-04-15T12:45:35.004Z,67.83
2023-04-15T12:46:36.004Z,68.04
2023-04-15T12:47:35.001Z,68.44
2023-04-15T12:48:36.429Z,68.54
2023-04-15T12:49:34.975Z,68.65
2023-04-15T12:50:35.327Z,68.75
2023-04-15T12:51:34.958Z,68.37
2023-04-15T12:52:35.913Z,68.48